Time;durP1;ratioP1;P1;durP2;ratioP2;P2;SDS_P1;SDS_P2;PMS_P1;PMS_P2;Temp;Humidity;BMP_temperature;BMP_pressure;BME280_temperature;BME280_humidity;BME280_pressure;Samples;Min_cycle;Max_cycle;Signal;HPM_P1;HPM_P2
2022/08/03 00:02:24;;;;;;;2.60;2.17;;;;;;;19.41;72.51;100077.78;4955498;28;20215;-64
2022/08/03 00:04:49;;;;;;;2.50;2.30;;;;;;;19.48;72.90;100075.41;4975476;28;20184;-63
2022/08/03 00:07:15;;;;;;;2.47;2.27;;;;;;;19.53;72.76;100075.81;4975204;28;20756;-63
2022/08/03 00:09:40;;;;;;;2.53;2.33;;;;;;;19.62;72.31;100074.13;4974889;28;20208;-63
2022/08/03 00:12:06;;;;;;;3.70;2.30;;;;;;;19.63;72.24;100070.56;4984232;28;20294;-63
2022/08/03 00:14:31;;;;;;;2.60;2.23;;;;;;;19.70;72.09;100070.78;4989973;28;20988;-63
2022/08/03 00:16:57;;;;;;;6.70;2.43;;;;;;;19.63;72.57;100070.56;4975374;28;20223;-64
2022/08/03 00:19:22;;;;;;;6.83;2.50;;;;;;;19.62;72.36;100071.50;4975283;28;20302;-64
2022/08/03 00:21:47;;;;;;;2.30;2.10;;;;;;;19.53;73.42;100070.59;4967967;28;20234;-64
2022/08/03 00:24:13;;;;;;;3.03;2.40;;;;;;;19.47;74.55;100076.38;4976905;28;20270;-64
2022/08/03 00:26:38;;;;;;;4.07;2.13;;;;;;;19.36;76.18;100072.13;4974872;28;20235;-64
2022/08/03 00:29:03;;;;;;;6.73;2.57;;;;;;;19.36;76.18;100069.53;4975020;28;20207;-63
2022/08/03 00:31:29;;;;;;;3.90;2.40;;;;;;;19.30;77.01;100077.91;4976741;28;20694;-63
2022/08/03 00:33:54;;;;;;;4.13;2.80;;;;;;;19.33;76.91;100069.81;4980178;28;20585;-63
2022/08/03 00:36:19;;;;;;;8.07;2.43;;;;;;;19.40;76.39;100068.31;4975027;28;20191;-64
2022/08/03 00:38:45;;;;;;;4.83;2.67;;;;;;;19.36;76.05;100066.91;4969659;28;20263;-63
2022/08/03 00:41:10;;;;;;;7.27;2.87;;;;;;;19.33;76.60;100075.03;4965065;28;20306;-63
2022/08/03 00:43:35;;;;;;;5.43;2.80;;;;;;;19.31;76.95;100064.75;4981790;28;20184;-63
2022/08/03 00:46:01;;;;;;;7.10;2.93;;;;;;;19.11;79.35;100069.16;4974986;28;20263;-63
2022/08/03 00:48:26;;;;;;;4.77;2.30;;;;;;;19.21;78.90;100066.53;4989632;28;20207;-63
2022/08/03 00:50:52;;;;;;;5.40;2.80;;;;;;;19.24;78.00;100071.50;4967500;28;20281;-63
2022/08/03 00:53:17;;;;;;;5.23;3.33;;;;;;;19.22;78.84;100060.38;4989533;28;20191;-64
2022/08/03 00:55:43;;;;;;;5.37;2.70;;;;;;;19.25;78.18;100067.09;4974475;28;20595;-63
2022/08/03 00:58:10;;;;;;;4.50;2.70;;;;;;;19.23;78.96;100061.22;4969641;28;20180;-63
2022/08/03 01:00:37;;;;;;;4.50;2.30;;;;;;;19.13;78.89;100067.25;4954671;28;20231;-63
2022/08/03 01:03:04;;;;;;;3.40;2.57;;;;;;;19.12;78.70;100065.59;4985243;28;20184;-64
2022/08/03 01:05:37;;;;;;;3.57;2.10;;;;;;;19.08;78.94;100071.25;4989307;28;20218;-63
2022/08/03 01:08:10;;;;;;;3.73;2.80;;;;;;;19.07;79.03;100070.41;4974008;28;20249;-65
2022/08/03 01:11:04;;;;;;;2.40;2.20;;;;;;;18.87;78.81;100062.59;4965037;28;20235;-63
2022/08/03 01:13:38;;;;;;;2.60;2.37;;;;;;;18.85;78.45;100069.75;4978497;28;20271;-63
2022/08/03 01:16:18;;;;;;;3.17;2.80;;;;;;;18.82;78.80;100067.41;4972942;28;20179;-64
2022/08/03 01:18:59;;;;;;;4.43;2.50;;;;;;;18.64;78.58;100061.22;4972297;28;20231;-63
2022/08/03 01:21:30;;;;;;;3.37;2.47;;;;;;;18.66;78.63;100061.94;4983169;28;20215;-63
2022/08/03 01:24:22;;;;;;;3.23;2.47;;;;;;;18.47;79.26;100057.50;4979119;28;20238;-62
2022/08/03 01:27:16;;;;;;;4.83;2.50;;;;;;;18.42;79.94;100060.56;4972514;28;20224;-63
2022/08/03 01:29:55;;;;;;;4.30;2.63;;;;;;;18.43;80.11;100058.75;4973226;28;20262;-62
2022/08/03 01:35:51;;;;;;;3.33;2.70;;;;;;;18.36;80.11;100061.09;4974026;28;20316;-63
2022/08/03 01:38:23;;;;;;;3.33;2.37;;;;;;;18.36;80.71;100059.28;4970181;28;20654;-63
2022/08/03 01:40:51;;;;;;;2.43;2.17;;;;;;;18.40;81.60;100057.25;4965491;28;20582;-63
2022/08/03 01:43:20;;;;;;;4.73;2.77;;;;;;;18.42;80.45;100060.56;4972186;28;20180;-63
2022/08/03 01:45:47;;;;;;;7.33;2.83;;;;;;;18.34;81.25;100049.97;4972503;28;20643;-64
2022/08/03 01:48:16;;;;;;;4.43;2.70;;;;;;;18.11;83.23;100052.81;4988420;28;20278;-64
2022/08/03 01:50:43;;;;;;;3.70;2.93;;;;;;;18.17;83.23;100044.47;4963886;28;20579;-64
2022/08/03 01:53:14;;;;;;;2.33;2.13;;;;;;;18.25;82.23;100043.78;4972640;28;20546;-64
2022/08/03 01:55:41;;;;;;;3.03;2.77;;;;;;;18.37;80.92;100047.13;4983882;28;20188;-65
2022/08/03 01:58:07;;;;;;;3.63;2.60;;;;;;;18.36;81.21;100042.88;4976202;28;20635;-64
2022/08/03 02:00:37;;;;;;;8.73;2.40;;;;;;;18.37;81.21;100050.53;4981115;28;20238;-65
2022/08/03 02:03:07;;;;;;;4.37;2.40;;;;;;;18.36;80.92;100050.66;4988243;28;20655;-64
2022/08/03 02:05:35;;;;;;;2.83;2.30;;;;;;;18.33;81.86;100046.56;4973458;28;20192;-64
2022/08/03 02:08:03;;;;;;;3.00;2.50;;;;;;;18.29;82.32;100047.78;4980976;28;20527;-64
2022/08/03 02:10:31;;;;;;;2.87;2.50;;;;;;;18.34;82.47;100045.56;4965093;28;20244;-64
2022/08/03 02:13:01;;;;;;;3.27;2.93;;;;;;;18.34;82.70;100047.38;4988147;28;20184;-63
2022/08/03 02:15:29;;;;;;;2.83;2.50;;;;;;;18.28;82.82;100048.72;4973730;28;20640;-64
2022/08/03 02:17:56;;;;;;;2.93;2.67;;;;;;;18.22;83.86;100060.50;4973085;28;20287;-64
2022/08/03 02:20:23;;;;;;;3.77;2.47;;;;;;;18.18;85.00;100055.69;4964526;28;20203;-63
2022/08/03 02:22:48;;;;;;;2.90;2.70;;;;;;;18.21;85.05;100055.44;4986218;28;20230;-64
2022/08/03 02:25:14;;;;;;;4.43;2.73;;;;;;;18.13;86.00;100052.69;4988518;28;20188;-64
2022/08/03 02:27:50;;;;;;;3.37;2.50;;;;;;;18.08;86.09;100045.28;4971929;28;20291;-64
2022/08/03 02:30:16;;;;;;;4.47;2.93;;;;;;;18.15;85.95;100053.38;4965152;28;20210;-62
2022/08/03 02:32:50;;;;;;;2.93;2.63;;;;;;;18.14;85.44;100047.34;4986526;28;20188;-62
2022/08/03 02:35:18;;;;;;;3.43;2.30;;;;;;;18.21;85.31;100050.25;4971790;28;20180;-63
2022/08/03 02:37:47;;;;;;;3.47;3.13;;;;;;;18.18;86.85;100050.50;4968932;28;20180;-63
2022/08/03 02:40:14;;;;;;;6.90;2.87;;;;;;;18.16;86.32;100050.63;4962265;28;20323;-63
2022/08/03 02:42:41;;;;;;;3.90;2.87;;;;;;;18.13;85.96;100050.06;4972004;28;20239;-63
2022/08/03 02:45:12;;;;;;;3.63;2.73;;;;;;;18.06;85.43;100052.41;4987964;28;20700;-63
2022/08/03 02:47:40;;;;;;;5.67;3.00;;;;;;;18.01;86.36;100051.97;4973241;28;20188;-64
2022/08/03 02:50:08;;;;;;;2.70;2.50;;;;;;;17.98;85.36;100047.84;4962208;28;20206;-63
2022/08/03 02:52:35;;;;;;;7.43;2.60;;;;;;;17.90;86.48;100050.28;4984907;28;20223;-63
2022/08/03 02:55:03;;;;;;;3.80;2.83;;;;;;;17.85;86.84;100050.66;4962224;28;20648;-63
2022/08/03 02:57:32;;;;;;;3.43;2.50;;;;;;;17.85;86.34;100042.84;4987308;28;20187;-63
2022/08/03 03:00:00;;;;;;;2.83;2.57;;;;;;;17.86;85.77;100044.50;4971706;28;20215;-64
2022/08/03 03:02:27;;;;;;;3.43;2.90;;;;;;;17.81;85.98;100049.28;4965741;28;20296;-63
2022/08/03 03:04:55;;;;;;;3.20;2.90;;;;;;;17.73;87.00;100036.09;4977093;28;20195;-64
2022/08/03 03:07:21;;;;;;;4.63;3.00;;;;;;;17.70;87.33;100037.19;4991753;28;20246;-64
2022/08/03 03:09:47;;;;;;;5.17;3.20;;;;;;;17.69;88.15;100032.94;4976114;28;20216;-63
2022/08/03 03:12:14;;;;;;;4.70;2.90;;;;;;;17.71;88.29;100038.00;4984983;28;20671;-64
2022/08/03 03:14:40;;;;;;;10.83;3.20;;;;;;;17.62;89.05;100038.81;4975003;28;20223;-64
2022/08/03 03:17:07;;;;;;;6.97;3.13;;;;;;;17.55;89.42;100038.50;4981927;28;20440;-63
2022/08/03 03:19:34;;;;;;;3.70;3.10;;;;;;;17.56;89.94;100037.53;4975203;28;20323;-64
2022/08/03 03:22:01;;;;;;;4.20;3.30;;;;;;;17.46;91.98;100037.50;4981239;28;20227;-64
2022/08/03 03:24:29;;;;;;;4.27;3.27;;;;;;;17.44;93.30;100039.41;4991433;28;20191;-63
2022/08/03 03:26:56;;;;;;;5.37;3.17;;;;;;;17.52;93.00;100031.78;4976260;28;20196;-64
2022/08/03 03:29:22;;;;;;;3.50;3.17;;;;;;;17.63;92.34;100037.84;4971013;28;20205;-64
2022/08/03 03:31:48;;;;;;;4.50;3.00;;;;;;;17.61;92.05;100032.75;4946231;28;20224;-64
2022/08/03 03:34:14;;;;;;;4.93;3.20;;;;;;;17.41;94.12;100037.91;4981362;28;20191;-64
2022/08/03 03:36:40;;;;;;;3.30;3.00;;;;;;;17.54;94.22;100037.69;4979641;28;20246;-56
2022/08/03 03:39:05;;;;;;;3.20;2.90;;;;;;;17.71;93.23;100041.44;4804888;28;20686;-55
2022/08/03 03:41:31;;;;;;;4.70;3.30;;;;;;;17.82;92.68;100042.28;4961057;28;20227;-55
2022/08/03 03:43:57;;;;;;;4.87;3.23;;;;;;;17.80;92.47;100039.00;4965641;28;20536;-57
2022/08/03 03:46:23;;;;;;;4.33;3.10;;;;;;;17.75;93.08;100047.22;4944770;28;20273;-56
2022/08/03 03:48:49;;;;;;;3.93;3.17;;;;;;;17.69;93.96;100037.34;4981389;28;20216;-55
2022/08/03 03:51:15;;;;;;;10.20;3.60;;;;;;;17.84;93.03;100038.59;4975336;28;20698;-55
2022/08/03 03:53:53;;;;;;;5.93;3.43;;;;;;;17.94;92.33;100043.88;4984855;28;20179;-55
2022/08/03 03:56:19;;;;;;;3.57;3.23;;;;;;;18.03;91.85;100045.66;4982885;28;20176;-54
2022/08/03 03:58:44;;;;;;;4.70;3.23;;;;;;;17.98;91.96;100053.06;4979003;28;20191;-55
2022/08/03 04:01:11;;;;;;;8.20;3.53;;;;;;;17.85;89.30;100049.81;4979571;28;20223;-55
2022/08/03 04:03:37;;;;;;;3.93;3.03;;;;;;;17.73;87.92;100049.94;4987000;28;20175;-55
2022/08/03 04:11:30;;;;;;;6.00;2.97;;;;;;;17.85;87.28;100042.00;4982814;28;20234;-55
2022/08/03 04:14:21;;;;;;;6.30;2.70;;;;;;;17.91;86.82;100044.94;4990337;28;20711;-55
2022/08/03 04:16:55;;;;;;;3.77;2.90;;;;;;;17.86;87.91;100041.91;4981602;28;20203;-55
2022/08/03 04:19:33;;;;;;;6.27;3.30;;;;;;;17.85;87.67;100042.00;4980679;28;20227;-55
2022/08/03 04:22:04;;;;;;;5.63;3.37;;;;;;;18.03;86.30;100039.66;4974630;28;20317;-55
2022/08/03 04:24:38;;;;;;;5.57;3.80;;;;;;;17.99;86.91;100044.28;4983060;28;20647;-54
2022/08/03 04:27:07;;;;;;;4.20;3.10;;;;;;;18.05;87.02;100042.94;4977476;28;20185;-54
2022/08/03 04:29:37;;;;;;;3.47;3.20;;;;;;;17.99;87.69;100048.69;4974736;28;20681;-56
2022/08/03 04:32:05;;;;;;;3.27;2.97;;;;;;;18.06;87.55;100048.00;4982722;28;20234;-55
2022/08/03 04:34:31;;;;;;;8.43;3.60;;;;;;;18.01;87.69;100042.38;4990204;28;20183;-55
2022/08/03 04:36:59;;;;;;;4.37;3.27;;;;;;;18.10;87.16;100042.53;4973249;28;20242;-56
2022/08/03 04:39:28;;;;;;;10.03;3.77;;;;;;;18.15;87.18;100045.56;4974359;28;20676;-55
2022/08/03 04:41:57;;;;;;;7.30;3.50;;;;;;;18.20;86.86;100051.19;4978270;28;20717;-54
2022/08/03 04:44:24;;;;;;;5.77;3.53;;;;;;;18.25;87.87;100056.00;4989743;28;20247;-57
2022/08/03 04:46:51;;;;;;;7.40;3.60;;;;;;;18.23;87.74;100059.56;4989876;28;20188;-55
2022/08/03 04:49:18;;;;;;;10.00;3.60;;;;;;;18.32;87.06;100068.34;4987027;28;20234;-55
2022/08/03 04:51:44;;;;;;;5.20;3.63;;;;;;;18.37;87.34;100063.56;4973203;28;20231;-55
2022/08/03 04:54:17;;;;;;;6.03;3.60;;;;;;;18.51;86.53;100066.72;4972682;28;20682;-55
2022/08/03 04:56:43;;;;;;;7.53;3.30;;;;;;;18.58;85.46;100069.59;4973466;28;20189;-56
2022/08/03 04:59:10;;;;;;;6.60;3.37;;;;;;;18.47;85.76;100075.75;4974445;28;20198;-56
2022/08/03 05:01:35;;;;;;;6.00;3.57;;;;;;;18.77;83.78;100071.41;4966272;28;20219;-55
2022/08/03 05:04:01;;;;;;;5.30;3.60;;;;;;;18.93;82.54;100071.69;4977638;28;20184;-55
2022/08/03 05:06:27;;;;;;;6.87;3.50;;;;;;;18.98;83.15;100073.88;4974208;28;20188;-55
2022/08/03 05:08:52;;;;;;;4.37;3.20;;;;;;;18.86;83.68;100068.75;4973671;28;20273;-56
2022/08/03 05:11:18;;;;;;;8.20;3.60;;;;;;;18.93;83.90;100074.28;4973634;28;20277;-56
2022/08/03 05:13:44;;;;;;;5.80;3.10;;;;;;;19.13;82.72;100071.66;4972828;28;20176;-56
2022/08/03 05:16:10;;;;;;;7.23;3.50;;;;;;;19.30;80.44;100070.09;4974337;28;20177;-55
2022/08/03 05:18:36;;;;;;;5.30;3.73;;;;;;;19.43;79.20;100075.81;4974282;28;20806;-55
2022/08/03 05:21:01;;;;;;;11.43;3.10;;;;;;;19.22;80.36;100075.22;4972231;28;20226;-55
2022/08/03 05:23:27;;;;;;;6.30;3.20;;;;;;;19.41;78.71;100076.94;4982180;28;20596;-54
2022/08/03 05:25:52;;;;;;;3.80;3.20;;;;;;;19.49;79.55;100074.44;4974967;28;20235;-55
2022/08/03 05:28:17;;;;;;;3.77;2.80;;;;;;;19.53;78.86;100075.81;4970176;28;20196;-55
2022/08/03 05:30:43;;;;;;;5.37;2.47;;;;;;;19.66;78.78;100073.69;4957882;28;20609;-55
2022/08/03 05:33:09;;;;;;;6.70;3.13;;;;;;;19.74;77.23;100086.03;4972637;28;20176;-56
2022/08/03 05:35:37;;;;;;;6.30;2.80;;;;;;;19.80;75.46;100087.25;4973799;28;20376;-55
2022/08/03 05:38:04;;;;;;;3.77;2.83;;;;;;;19.87;75.21;100085.75;4988672;28;20198;-55
2022/08/03 05:40:30;;;;;;;6.20;3.10;;;;;;;19.97;73.54;100086.50;4981689;28;20748;-55
2022/08/03 05:42:56;;;;;;;3.80;3.00;;;;;;;20.04;74.14;100086.72;4985383;28;20388;-55
2022/08/03 05:45:21;;;;;;;3.20;2.80;;;;;;;20.14;73.39;100089.28;4972053;28;20184;-55
2022/08/03 05:47:46;;;;;;;7.33;2.73;;;;;;;20.27;72.67;100089.78;4963140;28;20271;-55
2022/08/03 05:50:13;;;;;;;4.10;2.77;;;;;;;20.26;72.72;100088.13;4957188;28;20511;-55
2022/08/03 05:52:40;;;;;;;4.03;2.67;;;;;;;20.44;71.84;100089.94;4985409;28;20311;-55
2022/08/03 05:55:06;;;;;;;5.67;3.07;;;;;;;20.62;71.00;100092.56;4972075;28;20224;-55
2022/08/03 05:57:32;;;;;;;6.00;3.17;;;;;;;20.74;70.11;100091.41;4988200;28;20196;-55
2022/08/03 05:59:57;;;;;;;5.47;2.57;;;;;;;20.92;68.78;100096.59;4973370;28;20239;-58
2022/08/03 06:02:23;;;;;;;10.50;2.57;;;;;;;20.98;66.52;100089.94;4978445;28;20234;-55
2022/08/03 06:04:48;;;;;;;5.07;3.10;;;;;;;20.98;67.96;100089.94;4973442;28;20215;-56
2022/08/03 06:07:14;;;;;;;8.27;2.80;;;;;;;21.10;67.05;100099.19;4988997;28;20184;-55
2022/08/03 06:09:40;;;;;;;5.63;2.80;;;;;;;21.19;66.98;100089.59;4985070;28;20212;-55
2022/08/03 06:12:06;;;;;;;4.60;2.87;;;;;;;21.35;66.07;100101.16;4962731;28;20231;-55
2022/08/03 06:14:31;;;;;;;15.33;3.03;;;;;;;21.62;64.69;100096.75;4973108;28;20207;-55
2022/08/03 06:16:57;;;;;;;7.33;2.77;;;;;;;21.60;63.75;100089.06;4974300;28;20172;-55
2022/08/03 06:19:23;;;;;;;15.57;3.40;;;;;;;21.76;62.44;100089.13;4977279;28;20306;-56
2022/08/03 06:21:48;;;;;;;6.20;2.90;;;;;;;21.62;62.63;100083.66;4974503;28;20227;-57
2022/08/03 06:24:15;;;;;;;7.63;3.17;;;;;;;21.82;62.80;100090.31;4980895;28;20270;-55
2022/08/03 06:26:41;;;;;;;24.13;4.27;;;;;;;22.03;60.70;100087.28;4981573;28;20223;-55
2022/08/03 06:29:06;;;;;;;14.67;3.40;;;;;;;22.13;61.18;100089.78;4980237;28;20698;-55
2022/08/03 06:31:31;;;;;;;18.17;4.13;;;;;;;22.13;60.63;100094.16;4979037;28;20223;-58
2022/08/03 06:33:57;;;;;;;9.73;2.87;;;;;;;22.39;57.79;100092.31;4983368;28;20670;-56
2022/08/03 06:36:22;;;;;;;14.87;3.43;;;;;;;22.54;57.07;100092.50;4982030;28;20623;-55
2022/08/03 06:38:48;;;;;;;15.07;3.37;;;;;;;22.78;57.71;100097.94;4985872;28;20226;-55
2022/08/03 06:41:13;;;;;;;13.27;3.07;;;;;;;23.19;55.54;100090.06;4990597;28;20237;-67
2022/08/03 06:43:39;;;;;;;10.43;2.87;;;;;;;23.27;55.13;100095.31;4974181;28;20191;-66
2022/08/03 06:46:05;;;;;;;4.17;2.47;;;;;;;24.23;50.88;100091.84;4981190;28;20621;-65
2022/08/03 06:48:31;;;;;;;3.87;2.63;;;;;;;25.56;46.46;100087.94;4977752;28;20196;-67
2022/08/03 06:50:56;;;;;;;4.50;2.57;;;;;;;26.73;43.01;100096.75;4973469;28;21086;-66
2022/08/03 06:53:22;;;;;;;3.00;1.90;;;;;;;28.81;38.79;100102.19;4992810;28;20266;-66
2022/08/03 06:55:47;;;;;;;6.35;2.10;;;;;;;30.29;35.72;100096.47;4984529;28;20646;-66
2022/08/03 06:58:12;;;;;;;2.88;1.80;;;;;;;31.58;32.80;100108.44;4988184;28;20192;-66
2022/08/03 07:00:38;;;;;;;3.38;2.05;;;;;;;32.60;30.33;100101.53;4979322;28;20346;-67
2022/08/03 07:03:03;;;;;;;3.65;1.98;;;;;;;33.86;28.41;100105.63;4973918;28;20656;-68
2022/08/03 07:05:32;;;;;;;8.13;2.13;;;;;;;34.81;26.71;100109.63;4983507;28;20187;-67
2022/08/03 07:07:58;;;;;;;4.57;2.08;;;;;;;35.10;26.54;100117.53;4977567;28;20199;-67
2022/08/03 07:10:23;;;;;;;4.03;1.83;;;;;;;34.98;25.92;100114.97;4970512;28;20937;-67
2022/08/03 07:12:49;;;;;;;1.95;1.85;;;;;;;34.24;27.09;100106.84;4994671;28;20177;-68
2022/08/03 07:15:14;;;;;;;2.20;1.73;;;;;;;35.33;25.88;100116.53;4972592;28;20186;-68
2022/08/03 07:17:39;;;;;;;7.25;1.98;;;;;;;35.66;25.44;100122.81;4982727;28;20219;-68
2022/08/03 07:20:07;;;;;;;2.30;1.65;;;;;;;35.26;25.95;100115.88;4969667;28;20195;-68
2022/08/03 07:22:34;;;;;;;3.92;1.77;;;;;;;35.91;24.41;100122.31;4998706;28;20198;-67
2022/08/03 07:25:00;;;;;;;3.67;1.70;;;;;;;35.64;24.88;100125.72;4979256;28;20191;-67
2022/08/03 07:27:28;;;;;;;4.20;2.00;;;;;;;35.34;25.42;100126.97;4983087;28;20200;-68
2022/08/03 07:29:54;;;;;;;6.90;1.85;;;;;;;35.20;25.57;100123.03;4980408;28;20216;-67
2022/08/03 07:32:19;;;;;;;4.90;2.05;;;;;;;35.60;25.00;100126.47;4931459;28;20289;-68
2022/08/03 07:34:45;;;;;;;4.10;1.70;;;;;;;35.02;25.81;100126.81;4983393;28;20328;-68
2022/08/03 07:37:10;;;;;;;2.10;1.85;;;;;;;36.16;23.94;100129.78;4981926;28;20187;-68
2022/08/03 07:39:35;;;;;;;5.47;1.70;;;;;;;37.67;23.29;100136.94;4983189;28;20355;-70
2022/08/03 07:42:01;;;;;;;3.92;2.13;;;;;;;37.19;23.41;100137.78;4965438;28;20223;-69
2022/08/03 07:44:26;;;;;;;4.07;1.80;;;;;;;37.21;22.78;100138.31;4983260;28;20281;-70
2022/08/03 07:46:51;;;;;;;5.20;2.00;;;;;;;36.75;23.10;100128.09;4989155;28;20172;-69
2022/08/03 07:49:17;;;;;;;3.40;2.08;;;;;;;36.72;22.81;100131.31;4978871;28;20207;-70
2022/08/03 07:51:43;;;;;;;7.10;2.33;;;;;;;36.73;23.09;100126.75;4972351;28;20242;-70
2022/08/03 07:54:09;;;;;;;11.88;2.30;;;;;;;36.62;22.98;100123.22;4980110;28;20180;-69
2022/08/03 07:56:35;;;;;;;4.53;2.03;;;;;;;36.86;23.43;100120.97;4989768;28;20188;-68
2022/08/03 07:59:01;;;;;;;2.13;1.85;;;;;;;38.31;22.28;100129.56;4991804;28;20175;-69
2022/08/03 08:01:27;;;;;;;3.10;1.77;;;;;;;40.01;20.00;100131.75;4995079;28;20230;-70
2022/08/03 08:03:53;;;;;;;4.97;1.80;;;;;;;40.25;18.84;100137.22;4998775;28;20199;-69
2022/08/03 08:06:18;;;;;;;4.65;2.00;;;;;;;40.32;18.95;100143.09;4994812;28;20188;-68
2022/08/03 08:08:44;;;;;;;3.17;2.08;;;;;;;40.27;19.37;100137.75;4992661;28;20218;-70
2022/08/03 08:11:09;;;;;;;2.85;1.65;;;;;;;38.57;21.06;100122.31;4979463;28;20223;-70
2022/08/03 08:13:36;;;;;;;8.30;2.03;;;;;;;38.89;20.37;100121.19;4985808;28;20614;-69
2022/08/03 08:16:02;;;;;;;9.27;1.80;;;;;;;38.59;20.16;100122.81;4981115;28;20187;-70
2022/08/03 08:18:28;;;;;;;2.08;1.70;;;;;;;38.76;20.47;100113.72;4994379;28;20769;-69
2022/08/03 08:20:54;;;;;;;3.88;1.73;;;;;;;39.04;20.83;100114.97;4990224;28;20276;-70
2022/08/03 08:23:22;;;;;;;3.25;1.80;;;;;;;36.43;23.18;100118.25;4992927;28;20274;-69
2022/08/03 08:25:48;;;;;;;6.82;2.08;;;;;;;37.95;21.50;100117.69;4992626;28;20658;-69
2022/08/03 08:28:16;;;;;;;2.92;1.80;;;;;;;37.93;20.97;100113.66;4977802;28;20552;-68
2022/08/03 08:30:42;;;;;;;3.10;1.90;;;;;;;39.06;19.96;100107.41;4955151;28;20775;-68
2022/08/03 08:33:07;;;;;;;4.75;1.85;;;;;;;41.18;18.66;100117.47;4973722;28;20188;-69
2022/08/03 08:35:32;;;;;;;3.80;2.10;;;;;;;39.95;19.17;100116.72;4974854;28;20196;-68
2022/08/03 08:37:59;;;;;;;3.38;1.77;;;;;;;42.09;18.15;100113.00;4980470;28;20195;-70
2022/08/03 08:40:26;;;;;;;2.70;1.80;;;;;;;43.68;15.88;100119.19;4960548;28;20230;-70
2022/08/03 08:42:52;;;;;;;2.58;1.65;;;;;;;42.98;16.53;100119.25;5005568;28;20195;-70
2022/08/03 08:45:18;;;;;;;3.20;2.03;;;;;;;42.87;16.47;100117.88;4991160;28;20184;-68
2022/08/03 08:47:45;;;;;;;2.53;1.75;;;;;;;43.07;16.67;100119.38;4993575;28;20183;-69
2022/08/03 08:50:11;;;;;;;2.83;1.60;;;;;;;41.67;17.44;100114.69;4974904;28;20291;-70
2022/08/03 08:52:41;;;;;;;4.57;1.83;;;;;;;42.56;16.75;100111.13;5000659;28;20310;-70
2022/08/03 08:55:09;;;;;;;1.65;1.55;;;;;;;42.56;16.21;100116.53;4985022;28;20187;-70
2022/08/03 08:57:37;;;;;;;4.10;1.70;;;;;;;42.09;17.37;100108.41;4981987;28;20187;-70
2022/08/03 09:00:09;;;;;;;2.33;1.70;;;;;;;43.27;16.22;100101.94;4971979;28;20175;-70
2022/08/03 09:02:35;;;;;;;8.00;2.10;;;;;;;41.64;16.52;100105.28;4983412;28;20275;-70
2022/08/03 09:05:02;;;;;;;6.95;2.22;;;;;;;40.44;17.83;100099.63;4979527;28;20191;-69
2022/08/03 09:07:28;;;;;;;4.57;1.83;;;;;;;39.84;18.66;100095.25;4980954;28;20181;-69
2022/08/03 09:09:53;;;;;;;2.70;1.75;;;;;;;40.17;18.17;100098.25;4979318;28;20562;-69
2022/08/03 09:12:19;;;;;;;6.70;1.95;;;;;;;41.43;17.23;100100.19;4967607;28;20766;-69
2022/08/03 09:14:44;;;;;;;6.28;1.63;;;;;;;42.86;15.88;100100.84;4984937;28;20187;-69
2022/08/03 09:17:09;;;;;;;6.32;1.80;;;;;;;43.18;15.56;100109.97;4985539;28;20179;-69
2022/08/03 09:19:35;;;;;;;3.80;1.75;;;;;;;43.13;15.35;100106.56;4987398;28;20191;-70
2022/08/03 09:22:07;;;;;;;3.72;1.23;;;;;;;44.51;13.93;100103.63;4967898;28;20374;-69
2022/08/03 09:24:32;;;;;;;2.35;1.55;;;;;;;43.30;14.81;100098.59;4974241;28;21924;-69
2022/08/03 09:26:57;;;;;;;3.58;2.03;;;;;;;41.82;16.30;100098.28;4983153;28;20191;-68
2022/08/03 09:29:24;;;;;;;4.40;2.10;;;;;;;43.11;15.21;100097.91;4973173;28;20208;-69
2022/08/03 09:32:00;;;;;;;3.88;1.70;;;;;;;43.16;15.28;100095.16;4982248;28;20230;-69
2022/08/03 09:34:27;;;;;;;2.83;1.50;;;;;;;44.23;14.68;100101.09;4981820;28;20517;-70
2022/08/03 09:36:53;;;;;;;4.93;1.60;;;;;;;42.31;14.76;100098.06;4979816;28;20206;-70
2022/08/03 09:39:20;;;;;;;2.17;1.45;;;;;;;42.51;14.85;100096.91;4987347;28;20218;-69
2022/08/03 09:41:49;;;;;;;4.25;1.60;;;;;;;43.16;14.75;100095.16;4993770;28;20237;-79
2022/08/03 09:44:14;;;;;;;2.20;1.50;;;;;;;44.86;13.54;100103.78;4991577;28;20183;-70
2022/08/03 09:46:51;;;;;;;4.83;1.87;;;;;;;46.18;12.56;100102.69;4990126;28;20500;-75
2022/08/03 09:49:17;;;;;;;3.15;1.70;;;;;;;44.37;13.69;100092.91;4991568;28;20583;-73
2022/08/03 09:51:45;;;;;;;5.03;1.40;;;;;;;41.17;16.60;100088.09;4981628;28;20717;-68
2022/08/03 09:54:10;;;;;;;3.25;1.70;;;;;;;38.61;17.93;100079.56;4974042;28;20234;-68
2022/08/03 09:56:38;;;;;;;4.50;1.85;;;;;;;39.57;17.77;100084.09;4987438;28;20192;-70
2022/08/03 09:59:04;;;;;;;6.85;1.52;;;;;;;41.65;16.36;100082.59;4978687;28;20195;-68
2022/08/03 10:01:34;;;;;;;4.15;1.80;;;;;;;42.17;15.24;100084.50;4968492;28;20227;-69
2022/08/03 10:03:59;;;;;;;2.63;1.45;;;;;;;41.26;16.07;100076.38;4976484;28;20250;-70
2022/08/03 10:06:25;;;;;;;2.15;1.60;;;;;;;41.09;15.66;100089.53;4978323;28;20188;-72
2022/08/03 10:09:07;;;;;;;3.88;1.73;;;;;;;39.74;17.27;100071.06;4983192;28;20206;-72
2022/08/03 10:11:34;;;;;;;6.45;1.90;;;;;;;40.32;16.54;100073.06;4966239;28;20314;-73
2022/08/03 10:14:05;;;;;;;2.97;1.60;;;;;;;37.33;19.00;100065.72;4977587;28;20187;-74
2022/08/03 10:16:38;;;;;;;2.47;1.52;;;;;;;40.11;17.76;100064.34;4976953;28;20206;-74
2022/08/03 10:19:06;;;;;;;2.88;1.90;;;;;;;41.49;16.06;100063.13;4982318;28;20318;-76
2022/08/03 10:21:35;;;;;;;1.80;1.70;;;;;;;43.05;14.65;100062.06;4966545;28;20249;-75
2022/08/03 10:24:07;;;;;;;5.93;1.80;;;;;;;44.33;13.09;100062.88;4993481;28;20214;-74
2022/08/03 10:26:35;;;;;;;3.08;1.73;;;;;;;41.94;14.88;100060.00;4976525;28;20199;-76
2022/08/03 10:29:04;;;;;;;2.30;1.77;;;;;;;43.18;14.02;100050.44;4969739;28;20295;-71
2022/08/03 10:31:38;;;;;;;10.02;1.40;;;;;;;40.26;16.43;100054.53;4976089;28;20230;-72
2022/08/03 10:34:10;;;;;;;8.55;1.63;;;;;;;37.99;17.43;100031.25;4970533;28;20331;-69
2022/08/03 10:36:39;;;;;;;5.88;1.60;;;;;;;38.84;17.11;100032.47;4960385;28;20187;-71
2022/08/03 10:39:05;;;;;;;3.92;1.60;;;;;;;38.16;18.46;100031.00;4988054;28;20179;-73
2022/08/03 10:41:35;;;;;;;4.32;1.70;;;;;;;40.26;16.16;100041.84;4975411;28;20234;-71
2022/08/03 10:44:14;;;;;;;2.50;1.70;;;;;;;41.66;15.71;100035.59;4972169;28;20187;-74
2022/08/03 10:46:41;;;;;;;1.60;1.50;;;;;;;43.45;14.28;100031.69;4976280;28;20235;-71
2022/08/03 10:49:10;;;;;;;4.18;1.60;;;;;;;42.73;15.79;100034.03;4977288;28;20335;-71
2022/08/03 10:51:36;;;;;;;4.40;1.80;;;;;;;41.43;15.16;100026.50;4971101;28;20251;-73
2022/08/03 10:54:02;;;;;;;4.47;1.60;;;;;;;41.17;16.17;100017.94;4964945;28;20187;-78
2022/08/03 10:59:15;;;;;;;3.50;1.77;;;;;;;35.65;20.18;100009.66;4977110;28;20737;-73
2022/08/03 11:01:52;;;;;;;3.40;1.75;;;;;;;34.53;22.16;100004.53;4960251;28;20302;-68
2022/08/03 11:04:23;;;;;;;6.35;2.08;;;;;;;34.35;22.13;99998.41;4976649;28;20275;-69
2022/08/03 11:07:14;;;;;;;2.50;2.30;;;;;;;33.26;24.04;99989.53;4975206;28;20644;-69
2022/08/03 11:09:42;;;;;;;1.63;1.52;;;;;;;32.15;24.54;99991.91;4969329;28;20690;-68
2022/08/03 11:12:26;;;;;;;2.45;1.92;;;;;;;32.57;25.18;99992.88;4980887;28;20685;-69
2022/08/03 11:14:52;;;;;;;1.70;1.60;;;;;;;33.06;24.63;99976.59;4970108;28;20203;-69
2022/08/03 11:17:18;;;;;;;2.25;2.05;;;;;;;32.63;25.04;99987.41;4968385;28;20223;-66
2022/08/03 11:19:48;;;;;;;3.17;2.00;;;;;;;32.77;25.42;99987.19;4977029;28;21087;-68
2022/08/03 11:22:15;;;;;;;4.03;1.92;;;;;;;32.76;24.52;99982.91;4961149;28;20228;-69
2022/08/03 11:24:41;;;;;;;2.70;1.88;;;;;;;33.04;25.55;99984.81;4978809;28;20176;-68
2022/08/03 11:27:21;;;;;;;4.70;1.70;;;;;;;32.82;25.19;99974.81;4976260;28;20270;-68
2022/08/03 11:30:08;;;;;;;2.60;1.42;;;;;;;33.26;24.63;99973.53;4962795;28;20212;-68
2022/08/03 11:32:36;;;;;;;3.80;1.55;;;;;;;32.88;23.27;99978.38;4944484;28;20259;-69
2022/08/03 11:35:11;;;;;;;3.38;1.85;;;;;;;32.81;24.61;99975.06;4973807;28;20185;-68
2022/08/03 11:37:59;;;;;;;3.33;1.67;;;;;;;32.70;24.23;99984.66;4975216;28;20195;-68
2022/08/03 11:40:52;;;;;;;2.85;1.67;;;;;;;32.76;24.65;99980.25;4964471;28;20375;-68